Flight Track Log - Related Links

Times and Time Zones

All times are in EDT time to prevent confusion due to time zone crossing. See the ASQ4965 flight status page for this flight to view local times or setup timezone preferences in your user account.

Time Position Orientation Groundspeed Altitude Reporting Facility
EDT Latitude Longitude Course Direction KTS MPH feet Rate Location/Type
Mon 12:45:07 PM 41.0500 -73.8000 236° Southwest 234 269 4,000  Level New York TRACON
Mon 12:46:07 PM 41.0167 -73.9000 246° West 295 339 5,900 2,300 Climbing New York TRACON
Mon 12:47:07 PM 40.9833 -74.0000 246° West 313 360 8,600 2,550 Climbing New York TRACON
Mon 12:48:07 PM 40.9333 -74.1000 237° Southwest 321 369 11,000 1,800 Climbing New York TRACON
Mon 12:49:07 PM 40.8833 -74.2167 240° Southwest 380 437 12,200 1,850 Climbing New York TRACON
Mon 12:50:07 PM 40.8333 -74.3500 244° Southwest 387 445 14,700 1,807 Climbing New York TRACON
Mon 12:52:03 PM 40.7372 -74.5972 243° Southwest 407 468 17,500 1,568 Climbing New York Center
Mon 12:53:03 PM 40.6850 -74.7228 241° Southwest 414 476 19,300 1,950 Climbing New York Center
Mon 12:54:03 PM 40.6283 -74.8589 241° Southwest 421 484 21,400 2,400 Climbing New York Center
Mon 12:55:03 PM 40.5756 -74.9925 243° Southwest 421 484 24,100 2,471 Climbing New York Center
Mon 12:56:02 PM 40.5111 -75.1086 234° Southwest 409 471 26,300 1,950 Climbing New York Center
Mon 12:57:03 PM 40.4425 -75.2161 230° Southwest 404 465 28,000 1,438 Climbing New York Center
Mon 12:58:03 PM 40.3714 -75.3286 230° Southwest 397 457 29,200 1,100 Climbing New York Center
Mon 12:59:03 PM 40.3025 -75.4383 231° Southwest 397 457 30,200 1,008 Climbing New York Center
Mon 01:00:02 PM 40.2292 -75.5558 231° Southwest 409 471 31,200 1,000 Climbing New York Center
Mon 01:01:03 PM 40.1678 -75.6767 236° Southwest 409 471 32,200 1,000 Climbing New York Center
Mon 01:02:02 PM 40.1064 -75.7997 237° Southwest 409 471 33,200 950 Climbing New York Center
Mon 01:03:03 PM 40.0358 -75.9358 236° Southwest 409 471 34,100 694 Climbing New York Center
Mon 01:04:03 PM 39.9617 -76.0547 231° Southwest 421 484 34,600 500 Climbing New York Center
Mon 01:05:03 PM 39.8875 -76.1736 231° Southwest 426 490 35,100 550 Climbing New York Center
Mon 01:06:03 PM 39.8069 -76.2919 228° Southwest 439 505 35,700 454 Climbing New York Center
Mon 01:07:02 PM 39.7283 -76.4153 230° Southwest 439 505 36,000 123 Climbing New York Center
Mon 01:08:29 PM 39.6117 -76.5856 228° Southwest 446 513 36,000  Level Washington Center
Mon 01:09:29 PM 39.5314 -76.7081 230° Southwest 451 519 36,000  Level Washington Center
Mon 01:10:27 PM 39.4553 -76.8281 231° Southwest 451 519 36,000  Level Washington Center
Mon 01:11:27 PM 39.3747 -76.9475 229° Southwest 451 519 36,000  Level Washington Center
Mon 01:12:28 PM 39.2942 -77.0692 229° Southwest 451 519 36,000  Level Washington Center
Mon 01:13:29 PM 39.2156 -77.1908 230° Southwest 451 519 36,000  Level Washington Center
Mon 01:14:27 PM 39.1344 -77.3122 229° Southwest 451 519 36,000  Level Washington Center
Mon 01:15:27 PM 39.0536 -77.4333 229° Southwest 451 519 36,000  Level Washington Center
Mon 01:16:29 PM 38.9789 -77.5436 229° Southwest 451 519 36,000  Level Washington Center
Mon 01:17:27 PM 38.8911 -77.6772 230° Southwest 451 519 36,000  Level Washington Center
Mon 01:18:28 PM 38.8164 -77.7844 228° Southwest 451 519 36,000  Level Washington Center
Mon 01:19:28 PM 38.7392 -77.8992 229° Southwest 450 518 36,000  Level Washington Center
Mon 01:20:29 PM 38.6597 -78.0136 228° Southwest 440 506 36,000  Level Washington Center
Mon 01:21:27 PM 38.5822 -78.1253 228° Southwest 429 494 36,000  Level Washington Center
Mon 01:22:28 PM 38.5047 -78.2422 230° Southwest 429 494 36,000  Level Washington Center
Mon 01:23:28 PM 38.4228 -78.3583 228° Southwest 429 494 36,000  Level Washington Center
Mon 01:24:29 PM 38.3431 -78.4747 229° Southwest 429 494 36,000  Level Washington Center
Mon 01:25:27 PM 38.2672 -78.5908 230° Southwest 429 494 36,000  Level Washington Center
Mon 01:26:28 PM 38.1869 -78.7064 229° Southwest 429 494 36,000  Level Washington Center
Mon 01:27:29 PM 38.1089 -78.8192 229° Southwest 434 499 36,000  Level Washington Center
Mon 01:28:29 PM 38.0267 -78.9344 228° Southwest 434 499 36,000  Level Washington Center
Mon 01:29:28 PM 37.9397 -79.0569 228° Southwest 434 499 36,000  Level Washington Center
Mon 01:30:28 PM 37.8592 -79.1689 228° Southwest 434 499 36,000  Level Washington Center
Mon 01:31:29 PM 37.7764 -79.2833 228° Southwest 434 499 36,000  Level Washington Center
Mon 01:32:27 PM 37.7025 -79.3819 227° Southwest 434 499 36,000  Level Washington Center
Mon 01:33:28 PM 37.6150 -79.5061 228° Southwest 434 499 36,000  Level Washington Center
Mon 01:34:28 PM 37.5408 -79.6069 227° Southwest 434 499 36,000  Level Washington Center
Mon 01:35:29 PM 37.4511 -79.7306 228° Southwest 439 505 36,000  Level Washington Center
Mon 01:36:28 PM 37.3656 -79.8486 228° Southwest 444 511 36,000  Level Washington Center
Mon 01:37:28 PM 37.2911 -79.9489 227° Southwest 444 511 36,000  Level Washington Center
Mon 01:39:01 PM 37.1614 -80.1194 226° Southwest 425 489 36,000  Level Atlanta Center
Mon 01:40:01 PM 37.0794 -80.2300 227° Southwest 425 489 36,000  Level Atlanta Center
Mon 01:41:01 PM 36.9992 -80.3381 227° Southwest 430 495 36,000  Level Atlanta Center
Mon 01:42:01 PM 36.9089 -80.4564 226° Southwest 430 495 36,000  Level Atlanta Center
Mon 01:43:01 PM 36.8308 -80.5636 228° Southwest 430 495 36,000  Level Atlanta Center
Mon 01:44:01 PM 36.7622 -80.6522 226° Southwest 430 495 36,000  Level Atlanta Center
Mon 01:45:01 PM 36.6739 -80.7775 229° Southwest 423 487 36,000  Level Atlanta Center
Mon 01:46:01 PM 36.5892 -80.8844 225° Southwest 423 487 36,000  Level Atlanta Center
Mon 01:47:01 PM 36.5106 -80.9908 227° Southwest 423 487 36,000  Level Atlanta Center
Mon 01:48:01 PM 36.4275 -81.0972 226° Southwest 428 493 36,000  Level Atlanta Center
Mon 01:49:01 PM 36.3489 -81.2058 228° Southwest 428 493 36,000  Level Atlanta Center
Mon 01:50:01 PM 36.2697 -81.3089 226° Southwest 428 493 36,000  Level Atlanta Center
Mon 01:51:01 PM 36.1947 -81.4067 226° Southwest 428 493 36,000  Level Atlanta Center
Mon 01:52:01 PM 36.1178 -81.5094 227° Southwest 433 498 36,000  Level Atlanta Center
Mon 01:53:01 PM 36.0344 -81.6175 226° Southwest 433 498 36,000  Level Atlanta Center
Mon 01:54:01 PM 35.9550 -81.7197 226° Southwest 433 498 36,000  Level Atlanta Center
Mon 01:55:01 PM 35.8736 -81.8247 226° Southwest 433 498 36,000  Level Atlanta Center
Mon 01:56:01 PM 35.7961 -81.9267 227° Southwest 433 498 36,000 -150 Level Atlanta Center
Mon 01:57:01 PM 35.7103 -82.0311 225° Southwest 433 498 35,700 -500 Descending Atlanta Center
Mon 01:58:01 PM 35.6306 -82.1328 226° Southwest 428 493 35,000 -400 Descending Atlanta Center
Mon 01:59:01 PM 35.5486 -82.2392 227° Southwest 428 493 34,900 -550 Descending Atlanta Center
Mon 02:00:01 PM 35.4622 -82.3328 221° Southwest 428 493 33,900 -1,000 Descending Atlanta Center
Mon 02:02:01 PM 35.2875 -82.5325 223° Southwest 428 493 31,900 -1,000 Descending Atlanta Center
Mon 02:03:01 PM 35.2011 -82.6256 221° Southwest 428 493 30,900 -1,000 Descending Atlanta Center
Mon 02:04:01 PM 35.1144 -82.7208 222° Southwest 421 484 29,900 -950 Descending Atlanta Center
Mon 02:05:01 PM 35.0300 -82.8161 223° Southwest 421 484 29,000 -950 Descending Atlanta Center
Mon 02:06:01 PM 34.9453 -82.9086 222° Southwest 416 479 28,000 -1,050 Descending Atlanta Center
Mon 02:07:01 PM 34.8583 -82.9958 219° Southwest 416 479 26,900 -1,050 Descending Atlanta Center
Mon 02:08:01 PM 34.7736 -83.0881 222° Southwest 416 479 25,900 -1,000 Descending Atlanta Center
Mon 02:09:01 PM 34.6928 -83.1797 223° Southwest 409 471 24,900 -950 Descending Atlanta Center
Mon 02:10:01 PM 34.6119 -83.2717 223° Southwest 409 471 24,000 -800 Descending Atlanta Center
Mon 02:11:01 PM 34.5333 -83.3556 221° Southwest 395 455 23,300 -1,200 Descending Atlanta Center
Mon 02:12:01 PM 34.4481 -83.4494 222° Southwest 385 443 21,600 -1,850 Descending Atlanta Center
Mon 02:13:01 PM 34.3733 -83.5331 223° Southwest 373 429 19,600 -1,900 Descending Atlanta Center
Mon 02:14:01 PM 34.2986 -83.6139 222° Southwest 368 423 17,800 -1,950 Descending Atlanta Center
Mon 02:15:01 PM 34.2258 -83.6944 222° Southwest 361 415 15,700 -1,950 Descending Atlanta Center
Mon 02:16:01 PM 34.1572 -83.7653 221° Southwest 353 406 13,900 -1,750 Descending Atlanta Center
Mon 02:17:01 PM 34.0906 -83.8381 222° Southwest 329 379 12,200 -1,700 Descending Atlanta Center
Mon 02:18:01 PM 34.0364 -83.9058 226° Southwest 300 345 10,500 -1,600 Descending Atlanta Center
Mon 02:19:01 PM 33.9842 -83.9786 229° Southwest 290 334 9,000 -756 Descending Atlanta Center
Mon 02:20:00 PM 33.9333 -84.0500 229° Southwest 276 318 9,000 -555 Level Atlanta TRACON
Mon 02:21:00 PM 33.8667 -84.0833 203° Southwest 293 337 7,900 -1,367 Descending Atlanta TRACON
Mon 02:23:00 PM 33.7167 -84.1667 205° Southwest 275 316 4,900 -1,300 Descending Atlanta TRACON
Mon 02:24:00 PM 33.6667 -84.2167 220° Southwest 254 292 4,000 -900 Descending Atlanta TRACON
Mon 02:26:00 PM 33.6500 -84.3333 260° West 155 178 2,200 -833 Descending Atlanta TRACON
Mon 02:27:00 PM 33.6500 -84.3833 270° West 139 160 1,500 -700 Descending Atlanta TRACON
Mon 02:28:00 PM 33.6367 -84.4279 270° West  Level Estimated
Mon 02:35:00 PM 33.6367 -84.4279 103° East  Level Estimated
Mon 02:36:00 PM 33.6367 -84.4279 103° East  Level Estimated

Login

Don't have an account? Register now (free) for customized features, flight alerts, and more!